Time;durP1;ratioP1;P1;durP2;ratioP2;P2;SDS_P1;SDS_P2;PMS_P1;PMS_P2;Temp;Humidity;BMP_temperature;BMP_pressure;BME280_temperature;BME280_humidity;BME280_pressure;Samples;Min_cycle;Max_cycle;Signal;HPM_P1;HPM_P2
2022/03/16 00:00:22;;;;;;;14.32;9.15;;;;;;;3.28;100.00;102444.69;5073643;28;20055;-64
2022/03/16 00:02:51;;;;;;;16.80;9.82;;;;;;;3.22;100.00;102445.63;5073763;28;20545;-57
2022/03/16 00:05:19;;;;;;;18.35;10.55;;;;;;;3.16;100.00;102437.00;5073390;28;20049;-65
2022/03/16 00:07:50;;;;;;;17.85;9.82;;;;;;;3.21;100.00;102446.47;5073113;28;20509;-64
2022/03/16 00:10:19;;;;;;;18.33;9.77;;;;;;;3.18;100.00;102438.72;5073053;28;20561;-58
2022/03/16 00:12:47;;;;;;;17.40;9.75;;;;;;;3.12;100.00;102444.00;5071911;28;20080;-57
2022/03/16 00:15:15;;;;;;;15.48;9.40;;;;;;;3.02;100.00;102453.56;5072617;28;20036;-57
2022/03/16 00:17:43;;;;;;;16.27;10.07;;;;;;;3.01;100.00;102446.66;5073177;28;20055;-57
2022/03/16 00:20:12;;;;;;;18.30;10.18;;;;;;;2.99;100.00;102439.75;5073123;28;20044;-58
2022/03/16 00:22:41;;;;;;;21.60;10.25;;;;;;;3.02;100.00;102447.53;5073109;28;20086;-57
2022/03/16 00:25:10;;;;;;;16.67;9.52;;;;;;;3.06;100.00;102450.97;5072867;28;20044;-57
2022/03/16 00:27:40;;;;;;;20.52;10.20;;;;;;;3.02;100.00;102447.53;5072805;28;20491;-57
2022/03/16 00:30:09;;;;;;;21.88;10.23;;;;;;;2.96;100.00;102450.16;5073041;28;20056;-57
2022/03/16 00:32:38;;;;;;;15.60;10.15;;;;;;;2.93;100.00;102445.88;5072575;28;20040;-57
2022/03/16 00:35:07;;;;;;;17.85;10.13;;;;;;;2.94;100.00;102454.53;5072824;28;20052;-57
2022/03/16 00:37:35;;;;;;;17.73;10.13;;;;;;;2.87;100.00;102459.75;5072722;28;20056;-58
2022/03/16 00:40:04;;;;;;;19.85;10.13;;;;;;;2.85;100.00;102458.03;5072873;28;20107;-58
2022/03/16 00:42:32;;;;;;;16.40;9.30;;;;;;;2.91;100.00;102467.53;5072559;28;20052;-57
2022/03/16 00:45:02;;;;;;;15.77;9.80;;;;;;;2.85;100.00;102463.22;5072287;28;20052;-57
2022/03/16 00:47:30;;;;;;;16.35;10.73;;;;;;;2.84;100.00;102470.16;5072507;28;20062;-57
2022/03/16 00:49:58;;;;;;;16.10;9.55;;;;;;;2.79;100.00;102471.94;5072707;28;20075;-57
2022/03/16 00:52:26;;;;;;;18.95;10.60;;;;;;;2.78;100.00;102469.34;5072362;28;20045;-57
2022/03/16 00:54:54;;;;;;;15.00;10.15;;;;;;;2.68;100.00;102468.53;5072066;28;20402;-57
2022/03/16 00:57:22;;;;;;;18.88;10.40;;;;;;;2.61;100.00;102467.72;5072400;28;20127;-57
2022/03/16 00:59:51;;;;;;;18.63;9.93;;;;;;;2.64;100.00;102465.09;5072262;28;20032;-57
2022/03/16 01:02:20;;;;;;;16.60;9.95;;;;;;;2.64;100.00;102464.25;5072171;28;20079;-57
2022/03/16 01:04:48;;;;;;;18.25;9.60;;;;;;;2.59;100.00;102463.41;5072244;28;20491;-57
2022/03/16 01:07:17;;;;;;;16.35;9.15;;;;;;;2.58;100.00;102459.94;5072371;28;20048;-65
2022/03/16 01:09:46;;;;;;;18.30;10.32;;;;;;;2.57;100.00;102467.75;5072397;28;20040;-65
2022/03/16 01:12:14;;;;;;;17.23;10.00;;;;;;;2.51;100.00;102464.31;5072229;28;20041;-66
2022/03/16 01:14:45;;;;;;;19.13;10.63;;;;;;;2.51;100.00;102468.66;5072225;28;20056;-65
2022/03/16 01:17:13;;;;;;;15.38;10.75;;;;;;;2.51;100.00;102461.72;5072222;28;20055;-66
2022/03/16 01:19:44;;;;;;;17.40;10.30;;;;;;;2.50;100.00;102457.38;5072399;28;20044;-66
2022/03/16 01:22:12;;;;;;;18.85;10.25;;;;;;;2.47;100.00;102461.75;5072148;28;20040;-65
2022/03/16 01:24:40;;;;;;;18.42;11.25;;;;;;;2.44;100.00;102452.25;5072296;28;20093;-65
2022/03/16 01:27:08;;;;;;;18.33;11.73;;;;;;;2.45;100.00;102455.69;5071532;28;20495;-65
2022/03/16 01:29:37;;;;;;;19.75;10.80;;;;;;;2.45;100.00;102447.91;5070091;28;20044;-66
2022/03/16 01:32:06;;;;;;;21.52;13.40;;;;;;;2.48;100.00;102456.56;5071793;28;20045;-65
2022/03/16 01:34:36;;;;;;;20.85;13.57;;;;;;;2.47;100.00;102448.78;5071972;28;20089;-65
2022/03/16 01:37:06;;;;;;;20.05;11.68;;;;;;;2.38;100.00;102454.84;5071307;28;20059;-65
2022/03/16 01:39:34;;;;;;;20.05;12.48;;;;;;;2.37;100.00;102447.94;5071832;28;20510;-65
2022/03/16 01:42:03;;;;;;;19.38;13.38;;;;;;;2.42;100.00;102455.72;5072278;28;20047;-65
2022/03/16 01:44:47;;;;;;;19.63;12.52;;;;;;;2.42;100.00;102455.72;5072046;28;20053;-65
2022/03/16 01:47:17;;;;;;;24.00;12.20;;;;;;;2.44;100.00;102449.66;5071985;28;20382;-65
2022/03/16 01:49:46;;;;;;;19.13;12.57;;;;;;;2.43;100.00;102450.50;5071847;28;20052;-65
2022/03/16 01:52:19;;;;;;;19.98;11.98;;;;;;;2.40;100.00;102447.94;5071988;28;20044;-65
2022/03/16 01:54:47;;;;;;;;;;;;;;;2.45;100.00;102445.31;5072403;28;20028;-65
2022/03/16 01:57:16;;;;;;;21.67;12.48;;;;;;;2.37;100.00;102453.13;5071805;28;19921;-66
2022/03/16 01:59:45;;;;;;;20.08;12.52;;;;;;;2.32;100.00;102457.50;5071783;28;20063;-65
2022/03/16 02:02:14;;;;;;;20.50;12.70;;;;;;;2.30;100.00;102456.63;5071827;28;20068;-65
2022/03/16 02:04:45;;;;;;;22.17;11.98;;;;;;;2.35;100.00;102460.06;5071582;28;20447;-66
2022/03/16 02:07:16;;;;;;;20.13;11.85;;;;;;;2.35;100.00;102454.88;5071751;28;20045;-65
2022/03/16 02:09:47;;;;;;;19.10;11.63;;;;;;;2.30;100.00;102456.63;5071727;28;20527;-66
2022/03/16 02:12:15;;;;;;;21.77;12.32;;;;;;;2.32;100.00;102460.09;5071602;28;20049;-65
2022/03/16 02:14:43;;;;;;;16.40;10.93;;;;;;;2.36;100.00;102457.47;5071582;28;20048;-66
2022/03/16 02:17:11;;;;;;;21.27;12.80;;;;;;;2.28;100.00;102458.38;5071662;28;20059;-65
2022/03/16 02:19:39;;;;;;;20.40;11.25;;;;;;;2.28;100.00;102448.84;5071468;28;20135;-66
2022/03/16 02:22:10;;;;;;;20.08;12.82;;;;;;;2.27;100.00;102443.66;5071531;28;20072;-66
2022/03/16 02:24:40;;;;;;;17.95;12.85;;;;;;;2.17;100.00;102446.31;5071816;28;20408;-66
2022/03/16 02:27:09;;;;;;;20.40;12.20;;;;;;;2.17;100.00;102451.50;5071440;28;20044;-66
2022/03/16 02:29:37;;;;;;;18.27;11.32;;;;;;;2.18;100.00;102444.56;5071739;28;20495;-65
2022/03/16 02:32:06;;;;;;;17.58;11.23;;;;;;;2.18;100.00;102440.25;5071510;28;20051;-66
2022/03/16 02:34:35;;;;;;;21.88;12.50;;;;;;;2.13;100.00;102442.00;5072400;28;20040;-66
2022/03/16 02:37:03;;;;;;;20.15;12.57;;;;;;;2.17;100.00;102441.13;5075663;28;20056;-65
2022/03/16 02:39:31;;;;;;;19.92;12.23;;;;;;;2.14;100.00;102435.94;5074746;28;20056;-65
2022/03/16 02:42:01;;;;;;;18.67;11.52;;;;;;;2.11;100.00;102430.75;5074751;28;20048;-65
2022/03/16 02:44:30;;;;;;;22.17;12.30;;;;;;;2.12;100.00;102429.88;5074587;28;20063;-65
2022/03/16 02:47:00;;;;;;;21.05;12.82;;;;;;;2.07;100.00;102428.19;5074911;28;20048;-66
2022/03/16 02:49:31;;;;;;;20.17;12.05;;;;;;;2.08;100.00;102440.28;5074886;28;20060;-66
2022/03/16 02:52:08;;;;;;;19.30;11.48;;;;;;;2.17;100.00;102428.13;5074269;28;20044;-66
2022/03/16 02:54:36;;;;;;;17.17;10.70;;;;;;;2.17;100.00;102433.31;5073128;28;20255;-66
2022/03/16 02:57:07;;;;;;;18.92;11.13;;;;;;;2.17;100.00;102427.28;5074581;28;20118;-66
2022/03/16 02:59:36;;;;;;;19.95;10.75;;;;;;;2.19;100.00;102428.13;5074815;28;20585;-65
2022/03/16 03:02:04;;;;;;;17.80;11.93;;;;;;;2.08;100.00;102419.53;5073582;28;20037;-65
2022/03/16 03:04:33;;;;;;;22.23;13.32;;;;;;;2.02;100.00;102412.63;5074874;28;20064;-58
2022/03/16 03:07:01;;;;;;;27.85;16.13;;;;;;;1.98;100.00;102422.16;5074438;28;20449;-57
2022/03/16 03:09:29;;;;;;;27.80;17.23;;;;;;;1.97;100.00;102416.97;5074551;28;20483;-58
2022/03/16 03:11:59;;;;;;;26.05;16.65;;;;;;;1.97;100.00;102416.97;5074471;28;20654;-58
2022/03/16 03:14:28;;;;;;;28.70;18.90;;;;;;;2.00;100.00;102417.84;5074318;28;20032;-58
2022/03/16 03:16:57;;;;;;;30.77;18.75;;;;;;;2.01;100.00;102422.13;5074221;28;20502;-58
2022/03/16 03:19:25;;;;;;;33.95;20.25;;;;;;;2.04;100.00;102410.88;5074448;28;20139;-58
2022/03/16 03:21:53;;;;;;;30.60;19.50;;;;;;;2.09;100.00;102416.06;5074326;28;20491;-58
2022/03/16 03:24:22;;;;;;;33.08;18.95;;;;;;;2.08;100.00;102417.78;5074063;28;20101;-58
2022/03/16 03:26:50;;;;;;;32.28;18.85;;;;;;;2.08;100.00;102420.38;5072755;28;20048;-58
2022/03/16 03:29:19;;;;;;;30.75;19.83;;;;;;;2.10;100.00;102417.78;5073964;28;20045;-58
2022/03/16 03:31:48;;;;;;;33.97;20.55;;;;;;;2.13;100.00;102417.78;5074137;28;20612;-58
2022/03/16 03:34:16;;;;;;;35.58;21.00;;;;;;;2.17;100.00;102409.97;5073979;28;20086;-58
2022/03/16 03:36:45;;;;;;;35.15;20.75;;;;;;;2.16;100.00;102417.75;5074211;28;20072;-58
2022/03/16 03:39:13;;;;;;;37.55;22.23;;;;;;;2.17;100.00;102425.53;5073930;28;20051;-57
2022/03/16 03:41:41;;;;;;;38.63;22.92;;;;;;;2.17;100.00;102419.50;5073921;28;20041;-58
2022/03/16 03:44:10;;;;;;;38.70;23.52;;;;;;;2.20;100.00;102417.72;5073512;28;20084;-58
2022/03/16 03:46:38;;;;;;;41.08;23.20;;;;;;;2.23;100.00;102419.44;5072382;28;20044;-58
2022/03/16 03:49:07;;;;;;;39.30;24.17;;;;;;;2.28;100.00;102429.81;5073616;28;20052;-58
2022/03/16 03:51:36;;;;;;;39.58;23.13;;;;;;;2.27;100.00;102426.34;5073664;28;20048;-58
2022/03/16 03:54:04;;;;;;;40.40;24.65;;;;;;;2.26;100.00;102429.81;5073685;28;20394;-57
2022/03/16 03:56:32;;;;;;;38.88;22.85;;;;;;;2.26;100.00;102423.75;5073599;28;20048;-58
2022/03/16 03:59:00;;;;;;;40.40;23.50;;;;;;;2.27;100.00;102417.72;5073484;28;20376;-59
2022/03/16 04:01:28;;;;;;;37.58;22.70;;;;;;;2.28;100.00;102411.66;5073761;28;20055;-58
2022/03/16 04:03:56;;;;;;;35.85;22.95;;;;;;;2.27;100.00;102412.50;5073553;28;20040;-58
2022/03/16 04:06:26;;;;;;;35.75;23.13;;;;;;;2.23;100.00;102409.06;5073459;28;20098;-58
2022/03/16 04:08:55;;;;;;;36.25;23.80;;;;;;;2.25;100.00;102411.66;5073317;28;20048;-58
2022/03/16 04:11:23;;;;;;;39.05;23.00;;;;;;;2.28;100.00;102411.66;5073271;28;20044;-58
2022/03/16 04:13:51;;;;;;;38.58;24.38;;;;;;;2.26;100.00;102408.19;5073224;28;20055;-65
2022/03/16 04:16:20;;;;;;;39.28;23.60;;;;;;;2.33;100.00;102409.88;5073912;28;20044;-59
2022/03/16 04:18:48;;;;;;;41.70;25.95;;;;;;;2.28;100.00;102406.47;5073324;28;20541;-65
2022/03/16 04:21:17;;;;;;;45.20;26.55;;;;;;;2.31;100.00;102401.25;5073130;28;20050;-58
2022/03/16 04:23:46;;;;;;;46.67;27.23;;;;;;;2.25;100.00;102415.13;5073139;28;20119;-65
2022/03/16 04:26:14;;;;;;;48.10;27.35;;;;;;;2.26;100.00;102403.84;5073147;28;20048;-66
2022/03/16 04:28:42;;;;;;;43.60;26.98;;;;;;;2.29;100.00;102409.03;5073164;28;20044;-65
2022/03/16 04:31:10;;;;;;;41.50;26.48;;;;;;;2.30;100.00;102410.75;5073405;28;20136;-58
2022/03/16 04:33:43;;;;;;;44.05;27.05;;;;;;;2.31;100.00;102407.28;5073062;28;20551;-66
2022/03/16 04:36:11;;;;;;;41.85;26.15;;;;;;;2.31;100.00;102417.66;5073250;28;20048;-65
2022/03/16 04:38:40;;;;;;;38.33;25.05;;;;;;;2.28;100.00;102422.88;5072795;28;20421;-58
2022/03/16 04:41:09;;;;;;;41.58;26.23;;;;;;;2.29;100.00;102419.44;5072689;28;20044;-58
2022/03/16 04:43:39;;;;;;;39.53;23.92;;;;;;;2.32;100.00;102418.56;5071548;28;20399;-65
2022/03/16 04:46:07;;;;;;;41.83;25.92;;;;;;;2.36;100.00;102422.84;5072841;28;20060;-58
2022/03/16 04:48:35;;;;;;;40.08;25.88;;;;;;;2.35;100.00;102423.72;5072373;28;20511;-59
2022/03/16 04:51:03;;;;;;;39.53;23.40;;;;;;;2.31;100.00;102415.06;5072502;28;20560;-59
2022/03/16 04:53:31;;;;;;;38.33;22.77;;;;;;;2.31;100.00;102409.88;5072487;28;20558;-58
2022/03/16 04:56:00;;;;;;;37.40;22.17;;;;;;;2.24;100.00;102407.34;5072513;28;20127;-66
2022/03/16 04:58:30;;;;;;;38.70;22.63;;;;;;;2.25;100.00;102409.06;5071987;28;20044;-58
2022/03/16 05:00:58;;;;;;;38.22;23.30;;;;;;;2.25;100.00;102414.25;5072077;28;20079;-66
2022/03/16 05:03:26;;;;;;;35.63;22.10;;;;;;;2.20;100.00;102422.91;5072407;28;20694;-66
2022/03/16 05:05:55;;;;;;;34.53;21.98;;;;;;;2.16;100.00;102417.75;5072836;28;20567;-66
2022/03/16 05:08:23;;;;;;;35.80;22.55;;;;;;;2.17;100.00;102422.94;5072447;28;20067;-66
2022/03/16 05:10:52;;;;;;;37.67;22.20;;;;;;;2.20;100.00;102422.91;5072540;28;20075;-58
2022/03/16 05:13:21;;;;;;;37.65;22.45;;;;;;;2.20;100.00;102416.88;5072243;28;20049;-67
2022/03/16 05:15:50;;;;;;;36.05;21.88;;;;;;;2.17;100.00;102414.31;5072330;28;20086;-66
2022/03/16 05:18:18;;;;;;;37.78;23.23;;;;;;;2.14;100.00;102412.59;5072568;28;20063;-59
2022/03/16 05:20:48;;;;;;;33.10;21.15;;;;;;;2.19;100.00;102409.94;5073136;28;20048;-67
2022/03/16 05:23:16;;;;;;;36.20;23.10;;;;;;;2.16;100.00;102415.16;5072292;28;20052;-66
2022/03/16 05:25:46;;;;;;;35.22;22.08;;;;;;;2.13;100.00;102420.38;5072360;28;20154;-66
2022/03/16 05:28:14;;;;;;;34.08;21.83;;;;;;;2.02;100.00;102417.81;5072196;28;20441;-66
2022/03/16 05:30:42;;;;;;;37.50;21.55;;;;;;;2.07;100.00;102420.38;5071929;28;20388;-66
2022/03/16 05:33:12;;;;;;;34.08;21.00;;;;;;;2.05;100.00;102423.00;5072305;28;20454;-59
2022/03/16 05:35:43;;;;;;;34.83;21.58;;;;;;;2.03;100.00;102423.00;5072218;28;20119;-66
2022/03/16 05:38:13;;;;;;;33.20;20.50;;;;;;;2.07;100.00;102431.63;5072054;28;20057;-66
2022/03/16 05:40:42;;;;;;;33.15;21.80;;;;;;;2.10;100.00;102423.84;5072565;28;20106;-66
2022/03/16 05:43:11;;;;;;;34.22;21.38;;;;;;;2.10;100.00;102423.84;5072840;28;20380;-64
2022/03/16 05:45:41;;;;;;;36.15;21.70;;;;;;;2.12;100.00;102434.22;5071902;28;20408;-63
2022/03/16 05:48:09;;;;;;;37.22;22.30;;;;;;;2.02;100.00;102439.44;5072070;28;20037;-64
2022/03/16 05:50:40;;;;;;;42.10;23.20;;;;;;;2.03;100.00;102438.59;5071878;28;20384;-58
2022/03/16 05:53:08;;;;;;;37.80;23.45;;;;;;;1.99;100.00;102443.78;5072162;28;20419;-64
2022/03/16 05:55:38;;;;;;;38.75;23.67;;;;;;;2.05;100.00;102443.75;5072218;28;20044;-62
2022/03/16 05:58:06;;;;;;;41.88;26.42;;;;;;;2.02;100.00;102446.38;5071680;28;20055;-57
2022/03/16 06:00:35;;;;;;;40.60;24.88;;;;;;;2.03;100.00;102442.88;5071824;28;20503;-64
2022/03/16 06:03:05;;;;;;;42.78;24.98;;;;;;;2.09;100.00;102431.66;5070412;28;20499;-57
2022/03/16 06:05:34;;;;;;;39.20;24.02;;;;;;;2.05;100.00;102438.56;5071370;28;20128;-58
2022/03/16 06:08:03;;;;;;;44.95;26.05;;;;;;;2.10;100.00;102447.22;5071690;28;20048;-64
2022/03/16 06:10:32;;;;;;;43.60;26.33;;;;;;;2.09;100.00;102440.28;5073679;28;20130;-66
2022/03/16 06:13:03;;;;;;;44.08;27.48;;;;;;;2.07;100.00;102448.94;5075487;28;20045;-65
2022/03/16 06:15:38;;;;;;;42.33;24.95;;;;;;;2.13;100.00;102454.13;5075091;28;20054;-66
2022/03/16 06:18:08;;;;;;;45.33;28.88;;;;;;;2.17;100.00;102453.25;5075175;28;20499;-64
2022/03/16 06:20:38;;;;;;;54.15;28.60;;;;;;;2.23;100.00;102453.19;5075307;28;20048;-64
2022/03/16 06:23:08;;;;;;;47.08;28.35;;;;;;;2.23;100.00;102447.16;5074864;28;20053;-64
2022/03/16 06:25:40;;;;;;;46.70;27.77;;;;;;;2.30;100.00;102447.09;5074782;28;20090;-64
2022/03/16 06:28:10;;;;;;;45.58;27.65;;;;;;;2.30;100.00;102446.25;5075275;28;20471;-66
2022/03/16 06:30:42;;;;;;;52.10;30.13;;;;;;;2.32;100.00;102450.56;5073749;28;20083;-63
2022/03/16 06:33:10;;;;;;;47.60;28.90;;;;;;;2.31;100.00;102443.63;5075391;28;20053;-64
2022/03/16 06:35:38;;;;;;;52.13;30.42;;;;;;;2.33;100.00;102444.50;5075127;28;20033;-64
2022/03/16 06:38:08;;;;;;;50.25;29.73;;;;;;;2.37;100.00;102445.34;5075103;28;20044;-64
2022/03/16 06:40:37;;;;;;;55.08;30.80;;;;;;;2.38;100.00;102443.63;5075058;28;20062;-64
2022/03/16 06:43:07;;;;;;;47.75;29.95;;;;;;;2.43;100.00;102441.88;5075227;28;20057;-64
2022/03/16 06:45:36;;;;;;;51.20;29.02;;;;;;;2.43;100.00;102449.66;5074741;28;20065;-64
2022/03/16 06:48:05;;;;;;;45.22;28.33;;;;;;;2.49;100.00;102449.59;5074965;28;20121;-64
2022/03/16 06:50:33;;;;;;;50.38;29.15;;;;;;;2.57;100.00;102453.03;5074998;28;20048;-63
2022/03/16 06:53:03;;;;;;;50.80;28.90;;;;;;;2.62;100.00;102460.78;5073425;28;20198;-63
2022/03/16 06:55:33;;;;;;;55.90;30.98;;;;;;;2.61;100.00;102461.69;5074680;28;20060;-63
2022/03/16 06:58:01;;;;;;;56.75;31.65;;;;;;;2.61;100.00;102464.28;5074867;28;20106;-63
2022/03/16 07:00:29;;;;;;;51.30;29.15;;;;;;;2.67;100.00;102456.41;5074816;28;20048;-62
2022/03/16 07:03:00;;;;;;;52.75;30.83;;;;;;;2.74;100.00;102462.44;5074997;28;20659;-61
2022/03/16 07:05:32;;;;;;;45.90;29.50;;;;;;;2.80;100.00;102450.28;5074579;28;20048;-61
2022/03/16 07:08:02;;;;;;;51.15;31.52;;;;;;;2.86;100.00;102449.38;5074413;28;20052;-60
2022/03/16 07:10:32;;;;;;;58.45;30.77;;;;;;;2.95;100.00;102457.09;5074563;28;20483;-60
2022/03/16 07:13:04;;;;;;;52.08;30.52;;;;;;;3.01;100.00;102463.97;5074635;28;20048;-61
2022/03/16 07:15:33;;;;;;;51.88;30.70;;;;;;;3.12;100.00;102451.78;5074754;28;20043;-60
2022/03/16 07:18:04;;;;;;;51.03;30.35;;;;;;;3.12;100.00;102450.91;5074469;28;20044;-60
2022/03/16 07:20:33;;;;;;;53.60;29.55;;;;;;;3.13;100.00;102468.25;5073977;28;20051;-60
2022/03/16 07:23:05;;;;;;;48.80;28.58;;;;;;;3.25;100.00;102459.47;5074023;28;20049;-61
2022/03/16 07:25:37;;;;;;;49.05;29.98;;;;;;;3.38;100.00;102455.88;5073708;28;20082;-60
2022/03/16 07:28:13;;;;;;;50.95;29.98;;;;;;;3.57;100.00;102447.91;5074241;28;20365;-60
2022/03/16 07:30:44;;;;;;;49.75;29.17;;;;;;;3.68;100.00;102449.53;5073307;28;20048;-61
2022/03/16 07:33:14;;;;;;;49.47;30.27;;;;;;;3.81;100.00;102447.63;5061943;28;20033;-61
2022/03/16 07:35:44;;;;;;;49.83;29.98;;;;;;;4.00;100.00;102444.84;5073337;28;20481;-61
2022/03/16 07:38:14;;;;;;;47.88;29.50;;;;;;;4.15;100.00;102449.84;5061402;28;20036;-61
2022/03/16 07:40:44;;;;;;;42.10;26.23;;;;;;;4.26;100.00;102448.84;5058097;28;20044;-61
2022/03/16 07:43:14;;;;;;;47.10;27.30;;;;;;;4.49;100.00;102443.34;5051132;28;20040;-57
2022/03/16 07:45:42;;;;;;;44.97;27.67;;;;;;;4.71;100.00;102442.13;5069313;28;20059;-57
2022/03/16 07:48:10;;;;;;;43.72;27.42;;;;;;;4.92;100.00;102442.66;5074138;28;20045;-61
2022/03/16 07:50:42;;;;;;;39.08;25.83;;;;;;;5.10;100.00;102441.53;5073620;28;20053;-61
2022/03/16 07:53:12;;;;;;;38.00;22.85;;;;;;;5.29;100.00;102441.19;5073490;28;20041;-57
2022/03/16 07:55:40;;;;;;;37.00;24.17;;;;;;;5.43;100.00;102439.22;5073711;28;20041;-61
2022/03/16 07:58:10;;;;;;;36.72;23.52;;;;;;;5.66;100.00;102422.25;5065942;28;20053;-61
2022/03/16 08:00:40;;;;;;;33.55;22.73;;;;;;;5.82;100.00;102417.59;5065359;28;20131;-57
2022/03/16 08:03:09;;;;;;;36.08;21.40;;;;;;;6.06;100.00;102414.50;5073594;28;20045;-57
2022/03/16 08:05:39;;;;;;;30.45;19.83;;;;;;;6.23;100.00;102403.72;5073901;28;20068;-61
2022/03/16 08:08:09;;;;;;;32.20;19.35;;;;;;;6.47;100.00;102403.19;5073545;28;20123;-57
2022/03/16 08:10:38;;;;;;;31.60;19.80;;;;;;;6.62;100.00;102402.81;5073464;28;20564;-61
2022/03/16 08:13:06;;;;;;;26.95;18.40;;;;;;;6.88;100.00;102394.34;5072996;28;20151;-58
2022/03/16 08:15:34;;;;;;;25.63;16.95;;;;;;;7.30;100.00;102395.06;5072671;28;20041;-61
2022/03/16 08:18:06;;;;;;;24.00;14.98;;;;;;;7.59;100.00;102395.13;5072476;28;20040;-57
2022/03/16 08:20:34;;;;;;;22.58;14.52;;;;;;;7.61;100.00;102385.44;5072248;28;20118;-57
2022/03/16 08:23:02;;;;;;;26.48;14.98;;;;;;;7.80;100.00;102390.16;5072568;28;20049;-57
2022/03/16 08:25:51;;;;;;;22.85;12.30;;;;;;;8.11;100.00;102384.00;5072960;28;20509;-61
2022/03/16 08:28:21;;;;;;;20.85;12.85;;;;;;;8.19;100.00;102383.78;5071763;28;20052;-57
2022/03/16 08:30:49;;;;;;;19.55;12.07;;;;;;;8.55;100.00;102386.19;5073224;28;20048;-62
2022/03/16 08:33:23;;;;;;;17.00;10.43;;;;;;;8.69;97.46;102381.34;5072328;28;20067;-62
2022/03/16 08:35:54;;;;;;;19.50;10.48;;;;;;;8.79;93.89;102392.41;5072915;28;20041;-65
2022/03/16 08:38:22;;;;;;;17.77;9.98;;;;;;;9.00;92.03;102390.84;5073164;28;20051;-63
2022/03/16 08:40:51;;;;;;;16.20;9.77;;;;;;;9.06;91.53;102385.38;5073224;28;20048;-57
2022/03/16 08:43:19;;;;;;;17.33;9.43;;;;;;;8.94;90.33;102386.66;5072784;28;20059;-64
2022/03/16 08:45:47;;;;;;;17.33;9.30;;;;;;;8.85;89.09;102371.22;5072517;28;20560;-57
2022/03/16 08:48:15;;;;;;;17.80;9.48;;;;;;;8.80;89.70;102381.84;5072527;28;20487;-64
2022/03/16 08:50:44;;;;;;;15.95;9.70;;;;;;;8.96;89.83;102395.31;5072496;28;20048;-58
2022/03/16 08:53:13;;;;;;;14.60;8.75;;;;;;;8.77;88.41;102394.22;5072623;28;20044;-66
2022/03/16 08:55:42;;;;;;;16.63;9.45;;;;;;;8.86;89.71;102388.69;5072633;28;20044;-65
2022/03/16 08:58:13;;;;;;;15.40;9.73;;;;;;;8.85;88.80;102389.59;5072285;28;20058;-65
2022/03/16 09:00:42;;;;;;;16.05;9.02;;;;;;;8.88;88.53;102386.00;5071697;28;20055;-66
2022/03/16 09:03:10;;;;;;;16.85;9.48;;;;;;;8.95;88.32;102382.25;5072420;28;20099;-58
2022/03/16 09:05:38;;;;;;;14.60;8.77;;;;;;;9.07;88.48;102381.00;5072621;28;20516;-58
2022/03/16 09:08:09;;;;;;;17.13;9.68;;;;;;;9.12;87.28;102382.53;5073795;28;20499;-65
2022/03/16 09:10:38;;;;;;;16.40;9.23;;;;;;;9.18;87.34;102373.59;5073019;28;20051;-58
2022/03/16 09:13:07;;;;;;;17.02;9.23;;;;;;;9.36;85.97;102379.13;5072243;28;20113;-64
2022/03/16 09:15:38;;;;;;;13.73;8.18;;;;;;;9.40;84.55;102375.47;5072307;28;20496;-57
2022/03/16 09:18:08;;;;;;;14.45;8.30;;;;;;;9.49;83.62;102369.88;5072534;28;20048;-66
2022/03/16 09:20:38;;;;;;;15.57;8.60;;;;;;;9.60;84.54;102369.50;5072938;28;20071;-66
2022/03/16 09:23:10;;;;;;;14.45;8.65;;;;;;;9.81;82.51;102363.41;5073120;28;20430;-66
2022/03/16 09:25:38;;;;;;;13.68;8.02;;;;;;;9.68;82.49;102364.81;5073605;28;20442;-58
2022/03/16 09:28:08;;;;;;;15.65;8.43;;;;;;;9.55;83.29;102360.94;5072455;28;20095;-58
2022/03/16 09:30:36;;;;;;;16.73;8.98;;;;;;;9.58;82.43;102363.44;5072433;28;20052;-65
2022/03/16 09:33:05;;;;;;;15.05;8.18;;;;;;;9.78;82.94;102368.81;5072510;28;20052;-66
2022/03/16 09:35:35;;;;;;;14.70;9.27;;;;;;;9.87;81.58;102367.63;5072566;28;20049;-57
2022/03/16 09:38:03;;;;;;;14.93;8.70;;;;;;;10.15;80.56;102364.75;5072055;28;20048;-58
2022/03/16 09:40:36;;;;;;;17.17;8.63;;;;;;;10.24;79.68;102367.94;5072066;28;20087;-66
2022/03/16 09:43:07;;;;;;;15.90;8.77;;;;;;;10.40;78.13;102373.47;5072740;28;20135;-66
2022/03/16 09:45:46;;;;;;;16.23;8.68;;;;;;;10.52;79.38;102370.34;5078607;28;20052;-58
2022/03/16 09:48:14;;;;;;;14.10;8.13;;;;;;;10.87;76.78;102364.56;5078675;28;20043;-59
2022/03/16 09:50:43;;;;;;;14.20;8.23;;;;;;;10.85;76.10;102361.97;5078541;28;20379;-58
2022/03/16 09:53:14;;;;;;;14.52;9.07;;;;;;;11.24;75.47;102357.72;5078418;28;20048;-67
2022/03/16 09:55:45;;;;;;;14.95;8.60;;;;;;;11.16;74.99;102369.41;5078631;28;20052;-67
2022/03/16 09:58:13;;;;;;;15.32;8.75;;;;;;;11.33;75.31;102360.78;5080009;28;20132;-58
2022/03/16 10:00:42;;;;;;;16.45;9.40;;;;;;;11.58;74.44;102358.84;5078575;28;20106;-66
2022/03/16 10:03:10;;;;;;;15.35;8.73;;;;;;;11.58;73.24;102341.25;5078698;28;20040;-66
2022/03/16 10:05:40;;;;;;;14.25;9.15;;;;;;;11.64;72.50;102338.34;5078621;28;20040;-67
2022/03/16 10:08:10;;;;;;;14.65;8.57;;;;;;;11.70;72.86;102345.13;5078434;28;20044;-60
2022/03/16 10:13:26;;;;;;;14.82;9.15;;;;;;;12.37;70.19;102342.88;5078475;28;20052;-67
2022/03/16 10:16:09;;;;;;;15.90;8.57;;;;;;;12.46;70.16;102349.47;5078387;28;20059;-58
2022/03/16 10:18:39;;;;;;;15.98;8.80;;;;;;;12.48;69.47;102348.44;5078476;28;20048;-58
2022/03/16 10:21:12;;;;;;;15.15;9.43;;;;;;;12.63;69.01;102346.84;5078381;28;20049;-67
2022/03/16 10:23:41;;;;;;;16.33;9.32;;;;;;;12.95;68.77;102347.00;5078576;28;20544;-58
2022/03/16 10:26:16;;;;;;;15.88;9.23;;;;;;;12.88;67.67;102353.53;5078404;28;20063;-66
2022/03/16 10:28:47;;;;;;;13.82;8.32;;;;;;;13.16;67.58;102338.91;5078337;28;20070;-68
2022/03/16 10:31:18;;;;;;;15.90;9.77;;;;;;;13.40;66.93;102341.22;5078416;28;20048;-67
2022/03/16 10:33:48;;;;;;;13.88;8.63;;;;;;;13.46;66.22;102335.59;5078245;28;20507;-59
2022/03/16 10:36:18;;;;;;;15.80;9.32;;;;;;;13.44;65.69;102330.41;5078551;28;20068;-67
2022/03/16 10:38:48;;;;;;;15.80;8.93;;;;;;;13.61;64.45;102321.53;5078165;28;20101;-67
2022/03/16 10:46:57;;;;;;;17.55;9.27;;;;;;;14.36;62.44;102321.75;5078218;28;20128;-59
2022/03/16 10:49:30;;;;;;;14.85;8.88;;;;;;;14.58;61.73;102317.88;5078074;28;20074;-67
2022/03/16 10:52:02;;;;;;;13.93;8.95;;;;;;;14.80;61.47;102313.97;5078024;28;20044;-65
2022/03/16 10:54:30;;;;;;;14.80;8.68;;;;;;;14.79;59.80;102314.91;5078186;28;20049;-69
2022/03/16 10:57:02;;;;;;;14.18;8.77;;;;;;;14.85;59.25;102322.50;5074131;28;20040;-67
2022/03/16 10:59:34;;;;;;;16.57;9.23;;;;;;;15.02;59.66;102319.69;5074761;28;20080;-58
2022/03/16 11:02:05;;;;;;;14.02;8.93;;;;;;;15.10;58.44;102310.41;5075112;28;20449;-58
2022/03/16 11:04:36;;;;;;;13.40;8.70;;;;;;;15.37;57.83;102310.50;5074280;28;20056;-67
2022/03/16 11:07:05;;;;;;;14.10;8.45;;;;;;;15.49;56.15;102306.25;5075002;28;20044;-56
2022/03/16 11:09:34;;;;;;;13.43;8.68;;;;;;;15.51;55.70;102299.03;5074726;28;20045;-68
2022/03/16 11:15:01;;;;;;;11.45;7.85;;;;;;;15.38;55.48;102306.91;5074239;28;20044;-59
2022/03/16 11:17:31;;;;;;;;;;;;;;;15.95;53.07;102305.13;5075034;28;20125;-67
2022/03/16 11:20:02;;;;;;;14.00;7.68;;;;;;;16.04;52.39;102302.72;5074578;28;20354;-67
2022/03/16 11:22:34;;;;;;;14.02;8.40;;;;;;;15.83;51.63;102294.38;5074193;28;20123;-68
2022/03/16 11:25:12;;;;;;;12.63;8.23;;;;;;;15.62;51.84;102290.41;5074377;28;20037;-66
2022/03/16 11:27:46;;;;;;;12.32;8.25;;;;;;;15.64;51.43;102288.53;5074285;28;20044;-59
2022/03/16 11:30:25;;;;;;;12.30;7.45;;;;;;;16.55;51.55;102290.53;5074412;28;20037;-58
2022/03/16 11:32:57;;;;;;;12.15;8.05;;;;;;;16.14;50.08;102296.81;5074054;28;20052;-66